createdAt,value
2023-04-13T00:01:03.003Z,2.60
2023-04-13T00:03:33.440Z,2.20
2023-04-13T00:06:03.175Z,2.60
2023-04-13T00:08:36.822Z,2.60
2023-04-13T00:11:05.967Z,2.30
2023-04-13T00:13:41.411Z,2.00
2023-04-13T00:16:15.408Z,2.70
2023-04-13T00:18:45.859Z,2.90
2023-04-13T00:21:17.312Z,3.10
2023-04-13T00:23:45.582Z,2.60
2023-04-13T00:26:15.808Z,3.10
2023-04-13T00:28:45.115Z,3.50
2023-04-13T00:31:13.361Z,3.10
2023-04-13T00:33:41.752Z,3.40
2023-04-13T00:36:10.144Z,3.60
2023-04-13T00:38:38.357Z,3.80
2023-04-13T00:41:07.077Z,3.80
2023-04-13T00:43:37.096Z,4.50
2023-04-13T00:46:05.731Z,4.20
2023-04-13T00:48:37.315Z,3.70
2023-04-13T00:51:05.977Z,3.90
2023-04-13T00:53:34.687Z,4.00
2023-04-13T00:56:06.179Z,3.00
2023-04-13T00:58:34.955Z,3.20
2023-04-13T01:01:03.633Z,2.80
2023-04-13T01:03:32.614Z,2.90
2023-04-13T01:06:21.383Z,2.90
2023-04-13T01:08:53.844Z,3.40
2023-04-13T01:11:24.663Z,3.00
2023-04-13T01:13:56.947Z,3.30
2023-04-13T01:16:34.507Z,2.90
2023-04-13T01:19:06.232Z,2.90
2023-04-13T01:21:35.738Z,3.30
2023-04-13T01:24:25.761Z,3.20
2023-04-13T01:26:57.707Z,2.50
2023-04-13T01:29:26.375Z,2.90
2023-04-13T01:31:55.092Z,2.70
2023-04-13T01:34:23.457Z,3.10
2023-04-13T01:36:51.627Z,3.10
2023-04-13T01:39:20.551Z,3.10
2023-04-13T01:41:52.483Z,2.90
2023-04-13T01:44:22.974Z,3.30
2023-04-13T01:46:52.972Z,3.60
2023-04-13T01:49:49.218Z,2.70
2023-04-13T01:52:48.728Z,3.10
2023-04-13T01:55:17.456Z,2.50
2023-04-13T01:57:54.442Z,2.40
2023-04-13T02:01:20.239Z,2.70
2023-04-13T02:04:03.778Z,2.30
2023-04-13T02:06:37.018Z,3.00
2023-04-13T02:09:10.138Z,2.80
2023-04-13T02:11:38.414Z,3.00
2023-04-13T02:14:17.136Z,2.70
2023-04-13T02:16:45.784Z,2.60
2023-04-13T02:19:15.457Z,2.60
2023-04-13T02:21:43.617Z,2.80
2023-04-13T02:24:12.530Z,2.50
2023-04-13T02:26:43.812Z,2.80
2023-04-13T02:29:12.105Z,2.80
2023-04-13T02:31:52.676Z,2.70
2023-04-13T02:34:20.962Z,2.90
2023-04-13T02:36:49.188Z,3.50
2023-04-13T02:39:18.494Z,3.40
2023-04-13T02:41:48.614Z,3.30
2023-04-13T02:44:21.690Z,3.20
2023-04-13T02:46:54.535Z,4.20
2023-04-13T02:49:24.600Z,5.70
2023-04-13T02:52:13.098Z,12.00
2023-04-13T02:54:54.563Z,9.20
2023-04-13T02:57:25.353Z,6.50
2023-04-13T02:59:54.132Z,5.70
2023-04-13T03:02:26.841Z,8.20
2023-04-13T03:04:56.255Z,7.00
2023-04-13T03:07:26.021Z,8.10
2023-04-13T03:09:55.467Z,8.20
2023-04-13T03:12:27.246Z,6.20
2023-04-13T03:14:55.628Z,4.20
2023-04-13T03:17:30.354Z,3.50
2023-04-13T03:19:58.901Z,6.40
2023-04-13T03:22:30.677Z,8.60
2023-04-13T03:25:03.629Z,8.20
2023-04-13T03:27:36.510Z,6.80
2023-04-13T03:30:05.408Z,6.60
2023-04-13T03:32:40.253Z,6.70
2023-04-13T03:35:08.884Z,5.90
2023-04-13T03:37:42.923Z,4.40
2023-04-13T03:40:20.512Z,2.90
2023-04-13T03:42:51.955Z,2.80
2023-04-13T03:45:21.050Z,2.20
2023-04-13T03:47:50.231Z,2.30
2023-04-13T03:50:21.871Z,2.70
2023-04-13T03:52:52.229Z,3.60
2023-04-13T03:55:20.428Z,2.80
2023-04-13T03:57:53.465Z,3.20
2023-04-13T04:00:25.310Z,2.80
2023-04-13T04:03:17.749Z,3.00
2023-04-13T04:05:54.358Z,2.90
2023-04-13T04:08:24.403Z,2.90
2023-04-13T04:11:02.225Z,4.90
2023-04-13T04:13:31.962Z,6.30
2023-04-13T04:16:04.796Z,9.40
2023-04-13T04:18:35.015Z,6.10
2023-04-13T04:21:03.928Z,8.40
2023-04-13T04:23:34.996Z,9.30
2023-04-13T04:26:06.314Z,7.00
2023-04-13T04:28:44.137Z,6.90
2023-04-13T04:31:18.233Z,8.10
2023-04-13T04:33:48.051Z,6.10
2023-04-13T04:36:16.767Z,5.60
2023-04-13T04:39:02.934Z,5.70
2023-04-13T04:41:37.957Z,7.50
2023-04-13T04:44:09.882Z,7.20
2023-04-13T04:46:43.756Z,6.70
2023-04-13T04:49:14.964Z,7.60
2023-04-13T04:51:44.803Z,6.10
2023-04-13T04:54:17.040Z,4.60
2023-04-13T04:56:47.506Z,4.70
2023-04-13T04:59:18.334Z,5.70
2023-04-13T05:01:56.776Z,4.90
2023-04-13T05:04:24.996Z,5.20
2023-04-13T05:06:53.898Z,5.10
2023-04-13T05:09:26.848Z,5.70
2023-04-13T05:11:58.130Z,5.90
2023-04-13T05:14:26.379Z,7.00
2023-04-13T05:16:54.745Z,8.30
2023-04-13T05:19:31.624Z,7.20
2023-04-13T05:22:11.922Z,6.30
2023-04-13T05:24:44.700Z,5.20
2023-04-13T05:27:16.074Z,5.80
2023-04-13T05:29:47.806Z,5.10
2023-04-13T05:32:18.931Z,5.30
2023-04-13T05:34:52.778Z,5.40
2023-04-13T05:37:32.877Z,4.70
2023-04-13T05:40:01.838Z,5.40
2023-04-13T05:42:34.177Z,5.20
2023-04-13T05:45:04.081Z,5.20
2023-04-13T05:47:34.579Z,5.30
2023-04-13T05:52:36.293Z,7.70
2023-04-13T05:55:04.694Z,7.80
2023-04-13T05:57:37.131Z,6.70
2023-04-13T06:00:10.671Z,6.80
2023-04-13T06:02:49.326Z,5.70
2023-04-13T06:05:18.461Z,5.00
2023-04-13T06:07:47.855Z,4.90
2023-04-13T06:10:16.945Z,315.10
2023-04-13T06:12:48.742Z,7.90
2023-04-13T06:15:22.604Z,4.40
2023-04-13T06:17:51.690Z,4.60
2023-04-13T06:20:20.320Z,4.20
2023-04-13T06:22:48.669Z,4.40
2023-04-13T06:25:17.226Z,5.00
2023-04-13T06:27:50.132Z,5.10
2023-04-13T06:30:19.522Z,5.50
2023-04-13T06:32:49.568Z,6.70
2023-04-13T06:35:23.311Z,31.30
2023-04-13T06:37:52.096Z,10.50
2023-04-13T06:40:32.844Z,5.50
2023-04-13T06:43:11.058Z,5.10
2023-04-13T06:45:57.012Z,5.40
2023-04-13T06:48:26.474Z,5.50
2023-04-13T06:50:57.783Z,4.70
2023-04-13T06:53:26.675Z,5.00
2023-04-13T06:55:55.385Z,5.10
2023-04-13T06:58:23.913Z,5.10
2023-04-13T07:00:53.177Z,10.70
2023-04-13T07:03:22.340Z,4.50
2023-04-13T07:05:50.607Z,4.30
2023-04-13T07:08:20.907Z,3.90
2023-04-13T07:10:53.875Z,3.90
2023-04-13T07:13:44.570Z,4.60
2023-04-13T07:16:13.759Z,5.30
2023-04-13T07:18:45.356Z,18.70
2023-04-13T07:21:19.120Z,96.30
2023-04-13T07:24:06.535Z,33.30
2023-04-13T07:26:41.750Z,32.90
2023-04-13T07:29:13.766Z,335.50
2023-04-13T07:31:45.251Z,458.70
2023-04-13T07:34:14.002Z,384.80
2023-04-13T07:36:46.285Z,41.00
2023-04-13T07:39:19.774Z,171.60
2023-04-13T07:41:49.463Z,212.60
2023-04-13T07:44:26.679Z,139.60
2023-04-13T07:46:55.988Z,55.10
2023-04-13T07:49:25.095Z,13.40
2023-04-13T07:51:54.832Z,6.20
2023-04-13T07:54:23.710Z,4.40
2023-04-13T07:56:52.296Z,5.00
2023-04-13T07:59:25.180Z,4.90
2023-04-13T08:01:54.610Z,4.50
2023-04-13T08:04:23.520Z,4.80
2023-04-13T08:06:54.731Z,5.80
2023-04-13T08:09:23.432Z,26.40
2023-04-13T08:11:51.851Z,15.20
2023-04-13T08:14:25.352Z,5.80
2023-04-13T08:16:54.441Z,26.50
2023-04-13T08:19:22.909Z,7.10
2023-04-13T08:21:53.152Z,4.70
2023-04-13T08:24:21.905Z,5.90
2023-04-13T08:26:50.135Z,4.60
2023-04-13T08:29:19.375Z,8.50
2023-04-13T08:31:53.109Z,11.40
2023-04-13T08:34:21.862Z,5.60
2023-04-13T08:36:50.577Z,6.00
2023-04-13T08:39:18.795Z,5.70
2023-04-13T08:41:48.519Z,4.60
2023-04-13T08:44:19.303Z,3.90
2023-04-13T08:46:52.827Z,4.00
2023-04-13T08:49:26.151Z,4.40
2023-04-13T08:52:14.546Z,4.30
2023-04-13T08:54:47.094Z,4.70
2023-04-13T08:57:24.815Z,4.50
2023-04-13T08:59:53.169Z,3.90
2023-04-13T09:02:24.648Z,10.50
2023-04-13T09:07:31.027Z,60.00
2023-04-13T09:10:02.874Z,17.20
2023-04-13T09:12:32.689Z,14.70
2023-04-13T09:15:01.888Z,17.00
2023-04-13T09:17:35.355Z,8.90
2023-04-13T09:20:32.012Z,12.30
2023-04-13T09:23:03.726Z,13.00
2023-04-13T09:25:33.692Z,8.50
2023-04-13T09:28:06.553Z,8.00
2023-04-13T09:30:34.930Z,6.20
2023-04-13T09:33:07.635Z,5.50
2023-04-13T09:35:36.709Z,5.70
2023-04-13T09:38:06.371Z,5.90
2023-04-13T09:40:38.460Z,6.40
2023-04-13T09:43:11.391Z,7.40
2023-04-13T09:45:44.739Z,6.70
2023-04-13T09:48:16.878Z,8.10
2023-04-13T09:50:45.129Z,14.60
2023-04-13T09:53:15.866Z,8.10
2023-04-13T09:55:47.526Z,8.00
2023-04-13T09:58:17.060Z,7.70
2023-04-13T10:00:46.618Z,7.40
2023-04-13T10:03:15.592Z,9.30
2023-04-13T10:08:27.388Z,9.30
2023-04-13T10:11:04.475Z,8.10
2023-04-13T10:13:38.625Z,10.20
2023-04-13T10:16:09.968Z,8.20
2023-04-13T10:18:51.876Z,7.80
2023-04-13T10:21:20.110Z,13.80
2023-04-13T10:23:48.348Z,10.50
2023-04-13T10:26:17.731Z,7.50
2023-04-13T10:28:47.151Z,8.00
2023-04-13T10:31:16.938Z,9.60
2023-04-13T10:33:49.312Z,8.40
2023-04-13T10:36:17.677Z,7.00
2023-04-13T10:38:47.110Z,6.50
2023-04-13T10:41:28.898Z,7.00
2023-04-13T10:44:08.051Z,6.80
2023-04-13T10:46:39.055Z,6.80
2023-04-13T10:49:08.396Z,7.40
2023-04-13T10:51:42.005Z,5.80
2023-04-13T10:54:11.157Z,6.80
2023-04-13T10:56:40.441Z,6.40
2023-04-13T10:59:08.905Z,8.10
2023-04-13T11:01:40.065Z,10.80
2023-04-13T11:04:11.651Z,70.00
2023-04-13T11:06:43.665Z,20.70
2023-04-13T11:09:16.097Z,8.20
2023-04-13T11:11:51.411Z,9.20
2023-04-13T11:14:24.061Z,8.30
2023-04-13T11:16:58.378Z,9.70
2023-04-13T11:21:58.333Z,10.80
2023-04-13T11:24:34.383Z,10.80
2023-04-13T11:27:04.011Z,13.60
2023-04-13T11:29:33.301Z,9.20
2023-04-13T11:32:02.285Z,13.90
2023-04-13T11:34:30.712Z,83.30
2023-04-13T11:37:00.717Z,178.40
2023-04-13T11:39:32.410Z,45.30
2023-04-13T11:42:07.192Z,160.50
2023-04-13T11:44:38.053Z,16.80
2023-04-13T11:47:10.981Z,9.30
2023-04-13T11:49:48.262Z,9.60
2023-04-13T11:52:30.707Z,11.20
2023-04-13T11:55:07.807Z,23.00
2023-04-13T11:57:48.477Z,12.90
2023-04-13T12:00:22.206Z,11.00
2023-04-13T12:03:01.824Z,10.10
2023-04-13T12:05:32.503Z,10.90
2023-04-13T12:08:09.817Z,10.60
2023-04-13T12:10:43.616Z,12.70
2023-04-13T12:13:34.712Z,13.90
2023-04-13T12:16:15.069Z,13.80
2023-04-13T12:18:49.830Z,14.60
2023-04-13T12:21:20.574Z,15.50
2023-04-13T12:23:54.757Z,14.30
2023-04-13T12:29:03.086Z,20.20
2023-04-13T12:31:36.662Z,14.70
2023-04-13T12:34:11.528Z,11.60
2023-04-13T12:36:39.852Z,13.30
2023-04-13T12:39:08.758Z,14.90
2023-04-13T12:41:37.149Z,17.90
2023-04-13T12:44:07.400Z,13.70
2023-04-13T12:46:37.221Z,16.20
2023-04-13T12:49:05.428Z,24.00
2023-04-13T12:51:35.256Z,14.60
2023-04-13T12:54:03.898Z,16.90
2023-04-13T12:56:33.681Z,51.40
2023-04-13T12:59:03.230Z,21.10
2023-04-13T13:01:32.033Z,19.80
2023-04-13T13:04:01.818Z,22.30
2023-04-13T13:06:30.404Z,20.30
2023-04-13T13:08:58.793Z,21.80
2023-04-13T13:11:28.418Z,19.40
2023-04-13T13:13:56.759Z,20.80
2023-04-13T13:16:32.996Z,20.30
2023-04-13T13:19:10.715Z,19.40
2023-04-13T13:21:39.660Z,18.80
2023-04-13T13:24:10.776Z,21.20
2023-04-13T13:27:00.048Z,20.30
2023-04-13T13:29:30.978Z,21.10
2023-04-13T13:31:59.945Z,22.70
2023-04-13T13:34:28.254Z,23.00
2023-04-13T13:36:59.118Z,22.50
2023-04-13T13:39:28.299Z,22.90
2023-04-13T13:41:57.429Z,24.00
2023-04-13T13:44:25.992Z,25.10
2023-04-13T13:46:54.860Z,22.20
2023-04-13T13:49:25.029Z,19.80
2023-04-13T13:52:11.930Z,22.10
2023-04-13T13:54:47.822Z,22.40
2023-04-13T13:57:18.235Z,23.80
2023-04-13T13:59:49.263Z,25.50
2023-04-13T14:02:19.385Z,25.00
2023-04-13T14:04:47.680Z,25.10
2023-04-13T14:07:16.112Z,24.50
2023-04-13T14:09:46.953Z,25.00
2023-04-13T14:12:16.239Z,24.90
2023-04-13T14:14:45.032Z,22.20
2023-04-13T14:19:33.198Z,25.00
2023-04-13T14:22:01.590Z,28.30
2023-04-13T14:24:30.893Z,29.40
2023-04-13T14:26:59.481Z,30.60
2023-04-13T14:29:27.621Z,34.10
2023-04-13T14:32:00.979Z,34.70
2023-04-13T14:34:30.250Z,36.00
2023-04-13T14:36:59.105Z,35.50
2023-04-13T14:39:29.525Z,120.50
2023-04-13T14:41:58.324Z,168.40
2023-04-13T14:44:27.150Z,58.40
2023-04-13T14:46:56.578Z,41.40
2023-04-13T14:49:24.791Z,38.10
2023-04-13T14:51:53.427Z,35.10
2023-04-13T14:54:23.166Z,33.80
2023-04-13T14:56:51.533Z,27.20
2023-04-13T14:59:20.171Z,23.00
2023-04-13T15:01:49.022Z,19.10
2023-04-13T15:04:19.742Z,22.20
2023-04-13T15:06:49.543Z,22.00
2023-04-13T15:09:18.087Z,19.80
2023-04-13T15:11:46.699Z,20.40
2023-04-13T15:14:15.806Z,16.30
2023-04-13T15:16:44.417Z,16.10
2023-04-13T15:19:12.788Z,16.30
2023-04-13T15:21:46.645Z,16.60
2023-04-13T15:24:15.316Z,15.30
2023-04-13T15:26:43.585Z,14.50
2023-04-13T15:29:12.977Z,12.60
2023-04-13T15:31:41.250Z,11.00
2023-04-13T15:34:09.561Z,15.20
2023-04-13T15:36:38.131Z,14.70
2023-04-13T15:39:06.498Z,12.70
2023-04-13T15:41:34.833Z,9.70
2023-04-13T15:44:03.553Z,8.80
2023-04-13T15:46:32.583Z,8.90
2023-04-13T15:49:01.553Z,10.50
2023-04-13T15:51:30.099Z,9.90
2023-04-13T15:53:58.965Z,10.60
2023-04-13T15:56:28.487Z,10.20
2023-04-13T15:58:56.655Z,9.20
2023-04-13T16:01:25.098Z,8.80
2023-04-13T16:03:55.953Z,12.70
2023-04-13T16:06:24.222Z,13.70
2023-04-13T16:09:00.416Z,15.00
2023-04-13T16:11:31.704Z,8.50
2023-04-13T16:14:07.687Z,7.70
2023-04-13T16:16:53.561Z,6.90
2023-04-13T16:19:23.312Z,8.40
2023-04-13T16:21:53.165Z,7.90
2023-04-13T16:24:25.238Z,8.40
2023-04-13T16:26:53.456Z,8.80
2023-04-13T16:29:22.150Z,8.90
2023-04-13T16:31:50.475Z,6.90
2023-04-13T16:34:26.253Z,7.60
2023-04-13T16:36:55.310Z,8.30
2023-04-13T16:39:24.125Z,7.40
2023-04-13T16:41:52.266Z,6.40
2023-04-13T16:44:20.519Z,6.10
2023-04-13T16:46:49.996Z,5.50
2023-04-13T16:49:18.255Z,4.40
2023-04-13T16:51:48.587Z,3.10
2023-04-13T16:54:18.230Z,3.10
2023-04-13T16:56:47.267Z,3.00
2023-04-13T16:59:15.510Z,3.10
2023-04-13T17:01:43.711Z,3.10
2023-04-13T17:04:12.638Z,2.60
2023-04-13T17:06:41.327Z,3.10
2023-04-13T17:09:10.037Z,2.70
2023-04-13T17:11:40.842Z,2.80
2023-04-13T17:14:09.223Z,3.10
2023-04-13T17:16:38.933Z,2.40
2023-04-13T17:19:07.539Z,2.40
2023-04-13T17:21:37.527Z,2.70
2023-04-13T17:24:06.241Z,2.60
2023-04-13T17:26:38.448Z,2.30
2023-04-13T17:29:07.724Z,2.90
2023-04-13T17:31:35.953Z,3.00
2023-04-13T17:34:04.581Z,2.90
2023-04-13T17:36:34.318Z,2.70
2023-04-13T17:39:02.648Z,2.70
2023-04-13T17:41:35.962Z,2.60
2023-04-13T17:44:07.281Z,2.60
2023-04-13T17:46:35.978Z,2.90
2023-04-13T17:49:04.253Z,2.80
2023-04-13T17:51:34.255Z,3.20
2023-04-13T17:54:05.286Z,4.20
2023-04-13T17:56:33.484Z,4.80
2023-04-13T17:59:02.531Z,4.40
2023-04-13T18:01:31.143Z,3.60
2023-04-13T18:04:02.798Z,3.70
2023-04-13T18:06:32.142Z,3.50
2023-04-13T18:09:00.985Z,4.10
2023-04-13T18:11:33.449Z,4.70
2023-04-13T18:14:02.494Z,5.20
2023-04-13T18:16:33.917Z,4.60
2023-04-13T18:19:02.207Z,4.90
2023-04-13T18:21:32.850Z,4.80
2023-04-13T18:24:02.186Z,4.30
2023-04-13T18:26:31.371Z,4.50
2023-04-13T18:29:00.742Z,4.80
2023-04-13T18:31:29.175Z,8.30
2023-04-13T18:33:57.775Z,5.90
2023-04-13T18:36:26.609Z,4.30
2023-04-13T18:38:57.925Z,4.10
2023-04-13T18:41:26.245Z,4.40
2023-04-13T18:43:56.882Z,4.10
2023-04-13T18:46:28.478Z,4.00
2023-04-13T18:48:56.837Z,4.40
2023-04-13T18:51:27.609Z,3.60
2023-04-13T18:53:57.575Z,3.70
2023-04-13T18:56:26.257Z,3.90
2023-04-13T18:58:54.748Z,3.50
2023-04-13T19:01:23.945Z,4.00
2023-04-13T19:03:53.711Z,4.30
2023-04-13T19:06:28.597Z,4.40
2023-04-13T19:08:57.230Z,4.60
2023-04-13T19:11:27.759Z,4.00
2023-04-13T19:13:56.266Z,4.60
2023-04-13T19:16:26.470Z,5.50
2023-04-13T19:18:55.474Z,4.70
2023-04-13T19:21:24.362Z,5.00
2023-04-13T19:23:54.701Z,4.70
2023-04-13T19:26:25.550Z,4.90
2023-04-13T19:28:57.184Z,4.90
2023-04-13T19:31:25.654Z,6.10
2023-04-13T19:33:53.933Z,6.40
2023-04-13T19:36:23.165Z,5.90
2023-04-13T19:38:53.159Z,6.60
2023-04-13T19:41:22.584Z,5.50
2023-04-13T19:43:51.095Z,5.60
2023-04-13T19:46:19.407Z,5.60
2023-04-13T19:48:49.232Z,5.90
2023-04-13T19:51:17.547Z,5.90
2023-04-13T19:53:48.409Z,5.80
2023-04-13T19:56:17.525Z,6.10
2023-04-13T19:58:46.599Z,5.50
2023-04-13T20:01:17.491Z,6.00
2023-04-13T20:03:47.922Z,6.60
2023-04-13T20:06:16.459Z,6.10
2023-04-13T20:08:45.088Z,6.60
2023-04-13T20:11:17.197Z,6.20
2023-04-13T20:13:47.661Z,6.20
2023-04-13T20:16:15.982Z,5.90
2023-04-13T20:18:46.004Z,5.30
2023-04-13T20:21:14.664Z,5.60
2023-04-13T20:23:43.000Z,5.60
2023-04-13T20:26:11.297Z,5.40
2023-04-13T20:28:39.617Z,5.20
2023-04-13T20:31:08.626Z,5.10
2023-04-13T20:33:38.524Z,5.00
2023-04-13T20:36:06.779Z,5.20
2023-04-13T20:38:36.561Z,5.10
2023-04-13T20:41:04.948Z,5.20
2023-04-13T20:43:33.454Z,4.70
2023-04-13T20:46:02.001Z,4.50
2023-04-13T20:51:06.418Z,4.20
2023-04-13T20:53:35.885Z,4.70
2023-04-13T20:56:04.625Z,4.80
2023-04-13T20:58:33.181Z,4.50
2023-04-13T21:01:01.617Z,5.50
2023-04-13T21:03:32.246Z,5.80
2023-04-13T21:06:01.134Z,5.30
2023-04-13T21:08:29.469Z,5.40
2023-04-13T21:10:58.261Z,6.00
2023-04-13T21:13:28.102Z,5.40
2023-04-13T21:15:56.226Z,5.30
2023-04-13T21:18:28.486Z,5.90
2023-04-13T21:20:58.180Z,6.00
2023-04-13T21:23:27.283Z,6.00
2023-04-13T21:25:56.748Z,6.70
2023-04-13T21:28:25.065Z,7.90
2023-04-13T21:30:53.217Z,8.00
2023-04-13T21:33:23.103Z,7.10
2023-04-13T21:35:51.268Z,7.40
2023-04-13T21:38:19.538Z,7.40
2023-04-13T21:40:47.813Z,7.00
2023-04-13T21:43:17.552Z,7.70
2023-04-13T21:45:46.982Z,8.00
2023-04-13T21:48:15.231Z,7.30
2023-04-13T21:50:44.142Z,7.40
2023-04-13T21:53:13.628Z,7.70
2023-04-13T21:55:42.148Z,7.40
2023-04-13T21:58:10.420Z,7.60
2023-04-13T22:00:38.675Z,8.90
2023-04-13T22:03:07.622Z,8.50
2023-04-13T22:05:36.149Z,8.70
2023-04-13T22:08:04.429Z,9.80
2023-04-13T22:10:33.988Z,8.40
2023-04-13T22:13:02.332Z,8.70
2023-04-13T22:15:32.067Z,9.20
2023-04-13T22:18:01.090Z,9.70
2023-04-13T22:20:29.689Z,9.00
2023-04-13T22:22:57.941Z,9.10
2023-04-13T22:25:28.263Z,9.00
2023-04-13T22:27:56.560Z,10.10
2023-04-13T22:30:27.472Z,8.80
2023-04-13T22:32:57.246Z,9.50
2023-04-13T22:35:26.768Z,10.50
2023-04-13T22:37:59.796Z,11.20
2023-04-13T22:40:28.216Z,10.50
2023-04-13T22:42:56.306Z,10.20
2023-04-13T22:45:26.433Z,10.60
2023-04-13T22:47:54.969Z,11.30
2023-04-13T22:50:23.617Z,11.00
2023-04-13T22:52:55.882Z,11.90
2023-04-13T22:55:26.006Z,10.90
2023-04-13T22:57:54.104Z,11.30
2023-04-13T23:00:22.293Z,11.40
2023-04-13T23:02:55.989Z,12.30
2023-04-13T23:05:24.622Z,12.70
2023-04-13T23:07:53.232Z,13.20
2023-04-13T23:10:21.930Z,13.20
2023-04-13T23:12:50.695Z,13.00
2023-04-13T23:15:19.045Z,13.20
2023-04-13T23:17:47.794Z,13.90
2023-04-13T23:20:16.285Z,13.10
2023-04-13T23:22:44.610Z,14.90
2023-04-13T23:25:13.460Z,13.90
2023-04-13T23:27:42.251Z,15.10
2023-04-13T23:30:10.859Z,14.40
2023-04-13T23:32:39.347Z,14.50
2023-04-13T23:35:07.875Z,14.40
2023-04-13T23:37:36.200Z,15.70
2023-04-13T23:40:05.537Z,15.70
2023-04-13T23:42:37.079Z,15.50
2023-04-13T23:45:05.697Z,13.80
2023-04-13T23:47:35.573Z,14.20
2023-04-13T23:50:03.942Z,15.20
2023-04-13T23:52:33.208Z,15.70
2023-04-13T23:55:01.705Z,15.70
2023-04-13T23:57:36.430Z,16.40
